sensor_id;sensor_type;location;lat;lon;timestamp;P1;durP1;ratioP1;P2;durP2;ratioP2
8859;SDS011;4466;50.948;4.832;2024-01-16T00:01:06;8.53;;;2.90;;
8859;SDS011;4466;50.948;4.832;2024-01-16T00:03:33;4.77;;;2.30;;
8859;SDS011;4466;50.948;4.832;2024-01-16T00:06:00;9.00;;;3.27;;
8859;SDS011;4466;50.948;4.832;2024-01-16T00:08:25;6.60;;;2.93;;
8859;SDS011;4466;50.948;4.832;2024-01-16T00:10:51;7.30;;;2.60;;
8859;SDS011;4466;50.948;4.832;2024-01-16T00:13:29;6.93;;;2.90;;
8859;SDS011;4466;50.948;4.832;2024-01-16T00:15:56;10.80;;;3.10;;
8859;SDS011;4466;50.948;4.832;2024-01-16T00:18:22;6.90;;;2.83;;
8859;SDS011;4466;50.948;4.832;2024-01-16T00:20:47;7.70;;;2.60;;
8859;SDS011;4466;50.948;4.832;2024-01-16T00:23:13;8.40;;;3.23;;
8859;SDS011;4466;50.948;4.832;2024-01-16T00:25:39;6.73;;;2.80;;
8859;SDS011;4466;50.948;4.832;2024-01-16T00:28:06;6.00;;;2.80;;
8859;SDS011;4466;50.948;4.832;2024-01-16T00:30:31;8.03;;;2.73;;
8859;SDS011;4466;50.948;4.832;2024-01-16T00:32:58;10.23;;;2.90;;
8859;SDS011;4466;50.948;4.832;2024-01-16T00:35:27;9.40;;;2.80;;
8859;SDS011;4466;50.948;4.832;2024-01-16T00:37:52;10.73;;;3.47;;
8859;SDS011;4466;50.948;4.832;2024-01-16T00:40:18;8.10;;;2.87;;
8859;SDS011;4466;50.948;4.832;2024-01-16T00:42:43;8.00;;;2.60;;
8859;SDS011;4466;50.948;4.832;2024-01-16T00:45:09;9.73;;;3.10;;
8859;SDS011;4466;50.948;4.832;2024-01-16T00:47:35;10.47;;;2.83;;
8859;SDS011;4466;50.948;4.832;2024-01-16T00:50:00;7.33;;;3.00;;
8859;SDS011;4466;50.948;4.832;2024-01-16T00:52:27;12.50;;;3.50;;
8859;SDS011;4466;50.948;4.832;2024-01-16T00:54:52;11.33;;;2.97;;
8859;SDS011;4466;50.948;4.832;2024-01-16T00:57:18;9.47;;;2.83;;
8859;SDS011;4466;50.948;4.832;2024-01-16T00:59:45;8.27;;;2.70;;
8859;SDS011;4466;50.948;4.832;2024-01-16T01:02:11;6.97;;;2.60;;
8859;SDS011;4466;50.948;4.832;2024-01-16T01:04:37;11.57;;;3.67;;
8859;SDS011;4466;50.948;4.832;2024-01-16T01:07:03;7.57;;;2.80;;
8859;SDS011;4466;50.948;4.832;2024-01-16T01:09:28;11.20;;;3.13;;
8859;SDS011;4466;50.948;4.832;2024-01-16T01:11:54;8.53;;;3.00;;
8859;SDS011;4466;50.948;4.832;2024-01-16T01:14:20;12.13;;;3.13;;
8859;SDS011;4466;50.948;4.832;2024-01-16T01:16:45;10.87;;;2.93;;
8859;SDS011;4466;50.948;4.832;2024-01-16T01:19:11;11.33;;;3.53;;
8859;SDS011;4466;50.948;4.832;2024-01-16T01:21:37;8.07;;;3.07;;
8859;SDS011;4466;50.948;4.832;2024-01-16T01:24:03;6.93;;;2.70;;
8859;SDS011;4466;50.948;4.832;2024-01-16T01:26:32;10.37;;;3.20;;
8859;SDS011;4466;50.948;4.832;2024-01-16T01:29:00;8.47;;;2.93;;
8859;SDS011;4466;50.948;4.832;2024-01-16T01:31:26;11.27;;;2.77;;
8859;SDS011;4466;50.948;4.832;2024-01-16T01:33:51;14.20;;;3.33;;
8859;SDS011;4466;50.948;4.832;2024-01-16T01:36:17;11.03;;;3.10;;
8859;SDS011;4466;50.948;4.832;2024-01-16T01:38:43;6.90;;;3.00;;
8859;SDS011;4466;50.948;4.832;2024-01-16T01:41:08;5.50;;;3.00;;
8859;SDS011;4466;50.948;4.832;2024-01-16T01:43:36;6.30;;;2.87;;
8859;SDS011;4466;50.948;4.832;2024-01-16T01:46:09;10.17;;;3.17;;
8859;SDS011;4466;50.948;4.832;2024-01-16T01:48:42;10.97;;;3.20;;
8859;SDS011;4466;50.948;4.832;2024-01-16T01:51:12;9.83;;;3.17;;
8859;SDS011;4466;50.948;4.832;2024-01-16T01:53:39;8.57;;;3.00;;
8859;SDS011;4466;50.948;4.832;2024-01-16T01:56:11;9.47;;;2.93;;
8859;SDS011;4466;50.948;4.832;2024-01-16T01:58:40;6.33;;;3.17;;
8859;SDS011;4466;50.948;4.832;2024-01-16T02:01:08;10.80;;;2.67;;
8859;SDS011;4466;50.948;4.832;2024-01-16T02:03:43;8.53;;;3.33;;
8859;SDS011;4466;50.948;4.832;2024-01-16T02:06:10;8.57;;;2.90;;
8859;SDS011;4466;50.948;4.832;2024-01-16T02:08:37;9.67;;;2.73;;
8859;SDS011;4466;50.948;4.832;2024-01-16T02:11:04;8.77;;;3.10;;
8859;SDS011;4466;50.948;4.832;2024-01-16T02:13:30;6.23;;;3.07;;
8859;SDS011;4466;50.948;4.832;2024-01-16T02:15:56;7.83;;;3.10;;
8859;SDS011;4466;50.948;4.832;2024-01-16T02:18:22;8.53;;;2.87;;
8859;SDS011;4466;50.948;4.832;2024-01-16T02:20:48;8.10;;;3.00;;
8859;SDS011;4466;50.948;4.832;2024-01-16T02:23:14;6.57;;;2.80;;
8859;SDS011;4466;50.948;4.832;2024-01-16T02:25:44;9.23;;;2.63;;
8859;SDS011;4466;50.948;4.832;2024-01-16T02:28:09;6.70;;;3.00;;
8859;SDS011;4466;50.948;4.832;2024-01-16T02:30:35;7.10;;;3.03;;
8859;SDS011;4466;50.948;4.832;2024-01-16T02:33:01;7.27;;;2.80;;
8859;SDS011;4466;50.948;4.832;2024-01-16T02:35:28;9.50;;;2.63;;
8859;SDS011;4466;50.948;4.832;2024-01-16T02:37:54;9.37;;;3.17;;
8859;SDS011;4466;50.948;4.832;2024-01-16T02:40:19;9.63;;;3.50;;
8859;SDS011;4466;50.948;4.832;2024-01-16T02:42:45;7.23;;;3.20;;
8859;SDS011;4466;50.948;4.832;2024-01-16T02:45:11;6.60;;;3.07;;
8859;SDS011;4466;50.948;4.832;2024-01-16T02:47:37;10.30;;;3.17;;
8859;SDS011;4466;50.948;4.832;2024-01-16T02:50:02;7.13;;;3.03;;
8859;SDS011;4466;50.948;4.832;2024-01-16T02:52:30;7.63;;;2.80;;
8859;SDS011;4466;50.948;4.832;2024-01-16T02:54:59;10.80;;;3.03;;
8859;SDS011;4466;50.948;4.832;2024-01-16T02:57:25;8.70;;;3.20;;
8859;SDS011;4466;50.948;4.832;2024-01-16T02:59:50;8.93;;;3.20;;
8859;SDS011;4466;50.948;4.832;2024-01-16T03:02:16;11.47;;;2.87;;
8859;SDS011;4466;50.948;4.832;2024-01-16T03:04:42;10.27;;;3.03;;
8859;SDS011;4466;50.948;4.832;2024-01-16T03:07:07;10.13;;;3.20;;
8859;SDS011;4466;50.948;4.832;2024-01-16T03:09:33;6.03;;;2.70;;
8859;SDS011;4466;50.948;4.832;2024-01-16T03:12:17;8.70;;;3.20;;
8859;SDS011;4466;50.948;4.832;2024-01-16T03:14:43;12.20;;;3.17;;
8859;SDS011;4466;50.948;4.832;2024-01-16T03:17:08;12.77;;;2.50;;
8859;SDS011;4466;50.948;4.832;2024-01-16T03:19:34;5.97;;;2.70;;
8859;SDS011;4466;50.948;4.832;2024-01-16T03:22:01;7.30;;;3.30;;
8859;SDS011;4466;50.948;4.832;2024-01-16T03:24:28;9.10;;;2.70;;
8859;SDS011;4466;50.948;4.832;2024-01-16T03:26:54;10.07;;;2.90;;
8859;SDS011;4466;50.948;4.832;2024-01-16T03:29:19;7.60;;;2.90;;
8859;SDS011;4466;50.948;4.832;2024-01-16T03:31:46;8.10;;;3.30;;
8859;SDS011;4466;50.948;4.832;2024-01-16T03:34:11;7.23;;;3.03;;
8859;SDS011;4466;50.948;4.832;2024-01-16T03:36:37;7.73;;;2.80;;
8859;SDS011;4466;50.948;4.832;2024-01-16T03:39:03;9.10;;;2.93;;
8859;SDS011;4466;50.948;4.832;2024-01-16T03:41:34;8.33;;;2.80;;
8859;SDS011;4466;50.948;4.832;2024-01-16T03:44:00;11.63;;;3.20;;
8859;SDS011;4466;50.948;4.832;2024-01-16T03:46:25;8.53;;;2.87;;
8859;SDS011;4466;50.948;4.832;2024-01-16T03:48:51;8.63;;;3.23;;
8859;SDS011;4466;50.948;4.832;2024-01-16T03:51:20;5.70;;;2.87;;
8859;SDS011;4466;50.948;4.832;2024-01-16T03:53:45;9.60;;;2.83;;
8859;SDS011;4466;50.948;4.832;2024-01-16T03:56:11;7.60;;;2.90;;
8859;SDS011;4466;50.948;4.832;2024-01-16T03:58:37;7.80;;;2.67;;
8859;SDS011;4466;50.948;4.832;2024-01-16T04:01:06;9.80;;;2.93;;
8859;SDS011;4466;50.948;4.832;2024-01-16T04:03:32;7.70;;;3.03;;
8859;SDS011;4466;50.948;4.832;2024-01-16T04:05:57;9.13;;;2.70;;
8859;SDS011;4466;50.948;4.832;2024-01-16T04:08:26;10.70;;;3.07;;
8859;SDS011;4466;50.948;4.832;2024-01-16T04:10:51;6.93;;;2.80;;
8859;SDS011;4466;50.948;4.832;2024-01-16T04:13:17;9.47;;;2.73;;
8859;SDS011;4466;50.948;4.832;2024-01-16T04:15:43;8.97;;;2.80;;
8859;SDS011;4466;50.948;4.832;2024-01-16T04:18:09;6.53;;;2.60;;
8859;SDS011;4466;50.948;4.832;2024-01-16T04:20:35;8.70;;;2.77;;
8859;SDS011;4466;50.948;4.832;2024-01-16T04:23:00;6.90;;;2.87;;
8859;SDS011;4466;50.948;4.832;2024-01-16T04:25:26;8.60;;;2.93;;
8859;SDS011;4466;50.948;4.832;2024-01-16T04:27:52;7.27;;;3.03;;
8859;SDS011;4466;50.948;4.832;2024-01-16T04:30:26;8.73;;;3.23;;
8859;SDS011;4466;50.948;4.832;2024-01-16T04:32:52;9.93;;;2.70;;
8859;SDS011;4466;50.948;4.832;2024-01-16T04:35:18;5.93;;;2.50;;
8859;SDS011;4466;50.948;4.832;2024-01-16T04:37:43;5.27;;;2.73;;
8859;SDS011;4466;50.948;4.832;2024-01-16T04:40:09;6.43;;;2.70;;
8859;SDS011;4466;50.948;4.832;2024-01-16T04:42:35;10.23;;;2.90;;
8859;SDS011;4466;50.948;4.832;2024-01-16T04:45:04;9.20;;;2.83;;
8859;SDS011;4466;50.948;4.832;2024-01-16T04:47:33;8.10;;;3.10;;
8859;SDS011;4466;50.948;4.832;2024-01-16T04:49:59;8.70;;;2.83;;
8859;SDS011;4466;50.948;4.832;2024-01-16T04:52:24;7.30;;;2.60;;
8859;SDS011;4466;50.948;4.832;2024-01-16T04:54:50;6.93;;;2.57;;
8859;SDS011;4466;50.948;4.832;2024-01-16T04:57:19;7.93;;;2.70;;
8859;SDS011;4466;50.948;4.832;2024-01-16T04:59:44;11.33;;;3.00;;
8859;SDS011;4466;50.948;4.832;2024-01-16T05:02:13;7.87;;;3.03;;
8859;SDS011;4466;50.948;4.832;2024-01-16T05:04:42;8.50;;;3.10;;
8859;SDS011;4466;50.948;4.832;2024-01-16T05:07:07;7.73;;;2.87;;
8859;SDS011;4466;50.948;4.832;2024-01-16T05:09:33;8.27;;;3.37;;
8859;SDS011;4466;50.948;4.832;2024-01-16T05:11:59;7.10;;;2.97;;
8859;SDS011;4466;50.948;4.832;2024-01-16T05:14:25;5.37;;;2.80;;
8859;SDS011;4466;50.948;4.832;2024-01-16T05:16:53;15.33;;;3.50;;
8859;SDS011;4466;50.948;4.832;2024-01-16T05:19:19;7.20;;;2.90;;
8859;SDS011;4466;50.948;4.832;2024-01-16T05:21:45;7.30;;;3.07;;
8859;SDS011;4466;50.948;4.832;2024-01-16T05:24:10;7.40;;;2.87;;
8859;SDS011;4466;50.948;4.832;2024-01-16T05:26:36;8.67;;;2.80;;
8859;SDS011;4466;50.948;4.832;2024-01-16T05:29:01;8.97;;;3.03;;
8859;SDS011;4466;50.948;4.832;2024-01-16T05:31:27;8.93;;;3.30;;
8859;SDS011;4466;50.948;4.832;2024-01-16T05:33:53;8.80;;;3.17;;
8859;SDS011;4466;50.948;4.832;2024-01-16T05:36:18;11.17;;;3.53;;
8859;SDS011;4466;50.948;4.832;2024-01-16T05:38:44;8.17;;;3.23;;
8859;SDS011;4466;50.948;4.832;2024-01-16T05:41:10;7.17;;;3.20;;
8859;SDS011;4466;50.948;4.832;2024-01-16T05:43:38;6.37;;;3.17;;
8859;SDS011;4466;50.948;4.832;2024-01-16T05:46:04;9.07;;;3.27;;
8859;SDS011;4466;50.948;4.832;2024-01-16T05:48:30;9.60;;;3.20;;
8859;SDS011;4466;50.948;4.832;2024-01-16T05:50:56;8.90;;;3.77;;
8859;SDS011;4466;50.948;4.832;2024-01-16T05:53:21;7.07;;;3.40;;
8859;SDS011;4466;50.948;4.832;2024-01-16T05:55:47;9.23;;;3.40;;
8859;SDS011;4466;50.948;4.832;2024-01-16T05:58:12;9.97;;;3.67;;
8859;SDS011;4466;50.948;4.832;2024-01-16T06:00:38;7.90;;;3.47;;
8859;SDS011;4466;50.948;4.832;2024-01-16T06:03:04;6.93;;;3.73;;
8859;SDS011;4466;50.948;4.832;2024-01-16T06:05:30;9.33;;;3.90;;
8859;SDS011;4466;50.948;4.832;2024-01-16T06:07:55;8.60;;;3.90;;
8859;SDS011;4466;50.948;4.832;2024-01-16T06:10:21;14.07;;;4.50;;
8859;SDS011;4466;50.948;4.832;2024-01-16T06:12:47;9.43;;;3.60;;
8859;SDS011;4466;50.948;4.832;2024-01-16T06:15:12;9.10;;;3.20;;
8859;SDS011;4466;50.948;4.832;2024-01-16T06:17:38;8.83;;;3.77;;
8859;SDS011;4466;50.948;4.832;2024-01-16T06:20:04;12.23;;;4.03;;
8859;SDS011;4466;50.948;4.832;2024-01-16T06:22:31;7.13;;;3.63;;
8859;SDS011;4466;50.948;4.832;2024-01-16T06:24:57;5.97;;;3.53;;
8859;SDS011;4466;50.948;4.832;2024-01-16T06:27:22;7.03;;;3.60;;
8859;SDS011;4466;50.948;4.832;2024-01-16T06:29:48;9.37;;;3.97;;
8859;SDS011;4466;50.948;4.832;2024-01-16T06:32:14;7.73;;;3.60;;
8859;SDS011;4466;50.948;4.832;2024-01-16T06:34:40;10.57;;;3.77;;
8859;SDS011;4466;50.948;4.832;2024-01-16T06:37:05;9.60;;;4.07;;
8859;SDS011;4466;50.948;4.832;2024-01-16T06:39:31;6.47;;;3.47;;
8859;SDS011;4466;50.948;4.832;2024-01-16T06:41:58;8.50;;;3.77;;
8859;SDS011;4466;50.948;4.832;2024-01-16T06:44:24;9.67;;;3.63;;
8859;SDS011;4466;50.948;4.832;2024-01-16T06:46:49;6.53;;;3.67;;
8859;SDS011;4466;50.948;4.832;2024-01-16T06:49:15;7.70;;;3.80;;
8859;SDS011;4466;50.948;4.832;2024-01-16T06:51:40;7.37;;;4.07;;
8859;SDS011;4466;50.948;4.832;2024-01-16T06:54:06;7.97;;;4.10;;
8859;SDS011;4466;50.948;4.832;2024-01-16T06:56:32;9.93;;;4.20;;
8859;SDS011;4466;50.948;4.832;2024-01-16T06:58:57;8.23;;;3.93;;
8859;SDS011;4466;50.948;4.832;2024-01-16T07:01:23;8.37;;;3.47;;
8859;SDS011;4466;50.948;4.832;2024-01-16T07:03:49;10.93;;;4.40;;
8859;SDS011;4466;50.948;4.832;2024-01-16T07:06:15;9.63;;;3.80;;
8859;SDS011;4466;50.948;4.832;2024-01-16T07:08:41;9.00;;;4.27;;
8859;SDS011;4466;50.948;4.832;2024-01-16T07:11:06;7.53;;;3.67;;
8859;SDS011;4466;50.948;4.832;2024-01-16T07:13:34;7.53;;;3.60;;
8859;SDS011;4466;50.948;4.832;2024-01-16T07:16:00;8.43;;;4.00;;
8859;SDS011;4466;50.948;4.832;2024-01-16T07:18:27;8.47;;;4.83;;
8859;SDS011;4466;50.948;4.832;2024-01-16T07:20:53;6.97;;;3.63;;
8859;SDS011;4466;50.948;4.832;2024-01-16T07:23:18;9.57;;;4.00;;
8859;SDS011;4466;50.948;4.832;2024-01-16T07:25:44;8.43;;;4.13;;
8859;SDS011;4466;50.948;4.832;2024-01-16T07:28:10;8.47;;;4.30;;
8859;SDS011;4466;50.948;4.832;2024-01-16T07:30:35;11.67;;;6.00;;
8859;SDS011;4466;50.948;4.832;2024-01-16T07:33:01;12.10;;;4.90;;
8859;SDS011;4466;50.948;4.832;2024-01-16T07:35:28;9.70;;;4.07;;
8859;SDS011;4466;50.948;4.832;2024-01-16T07:37:53;10.23;;;4.03;;
8859;SDS011;4466;50.948;4.832;2024-01-16T07:40:19;8.17;;;3.83;;
8859;SDS011;4466;50.948;4.832;2024-01-16T07:42:45;9.10;;;3.90;;
8859;SDS011;4466;50.948;4.832;2024-01-16T07:45:11;10.63;;;4.17;;
8859;SDS011;4466;50.948;4.832;2024-01-16T07:47:36;7.90;;;4.03;;
8859;SDS011;4466;50.948;4.832;2024-01-16T07:50:02;11.37;;;4.17;;
8859;SDS011;4466;50.948;4.832;2024-01-16T07:52:28;7.70;;;4.00;;
8859;SDS011;4466;50.948;4.832;2024-01-16T07:54:54;11.80;;;4.10;;
8859;SDS011;4466;50.948;4.832;2024-01-16T07:57:20;8.47;;;3.83;;
8859;SDS011;4466;50.948;4.832;2024-01-16T07:59:46;10.47;;;4.50;;
8859;SDS011;4466;50.948;4.832;2024-01-16T08:02:11;9.97;;;3.80;;
8859;SDS011;4466;50.948;4.832;2024-01-16T08:04:37;10.27;;;4.63;;
8859;SDS011;4466;50.948;4.832;2024-01-16T08:07:03;6.83;;;4.00;;
8859;SDS011;4466;50.948;4.832;2024-01-16T08:09:29;9.23;;;3.80;;
8859;SDS011;4466;50.948;4.832;2024-01-16T08:11:54;8.67;;;4.20;;
8859;SDS011;4466;50.948;4.832;2024-01-16T08:14:20;10.70;;;4.43;;
8859;SDS011;4466;50.948;4.832;2024-01-16T08:16:45;9.83;;;3.80;;
8859;SDS011;4466;50.948;4.832;2024-01-16T08:19:11;9.67;;;4.10;;
8859;SDS011;4466;50.948;4.832;2024-01-16T08:21:37;8.13;;;3.90;;
8859;SDS011;4466;50.948;4.832;2024-01-16T08:24:02;10.20;;;4.00;;
8859;SDS011;4466;50.948;4.832;2024-01-16T08:26:28;11.97;;;3.93;;
8859;SDS011;4466;50.948;4.832;2024-01-16T08:28:54;9.40;;;3.77;;
8859;SDS011;4466;50.948;4.832;2024-01-16T08:31:19;8.17;;;3.57;;
8859;SDS011;4466;50.948;4.832;2024-01-16T08:33:45;13.63;;;3.87;;
8859;SDS011;4466;50.948;4.832;2024-01-16T08:36:12;7.73;;;3.83;;
8859;SDS011;4466;50.948;4.832;2024-01-16T08:38:40;8.43;;;3.87;;
8859;SDS011;4466;50.948;4.832;2024-01-16T08:41:06;8.67;;;3.67;;
8859;SDS011;4466;50.948;4.832;2024-01-16T08:43:35;6.73;;;3.60;;
8859;SDS011;4466;50.948;4.832;2024-01-16T08:46:00;8.70;;;3.60;;
8859;SDS011;4466;50.948;4.832;2024-01-16T08:48:26;8.30;;;3.30;;
8859;SDS011;4466;50.948;4.832;2024-01-16T08:50:52;9.10;;;3.70;;
8859;SDS011;4466;50.948;4.832;2024-01-16T08:53:19;6.87;;;3.83;;
8859;SDS011;4466;50.948;4.832;2024-01-16T08:55:47;9.43;;;3.73;;
8859;SDS011;4466;50.948;4.832;2024-01-16T08:58:13;10.93;;;4.70;;
8859;SDS011;4466;50.948;4.832;2024-01-16T09:00:39;10.73;;;5.27;;
8859;SDS011;4466;50.948;4.832;2024-01-16T09:03:05;16.23;;;5.87;;
8859;SDS011;4466;50.948;4.832;2024-01-16T09:05:30;7.13;;;3.43;;
8859;SDS011;4466;50.948;4.832;2024-01-16T09:07:56;11.43;;;3.83;;
8859;SDS011;4466;50.948;4.832;2024-01-16T09:10:23;6.67;;;3.67;;
8859;SDS011;4466;50.948;4.832;2024-01-16T09:12:48;7.77;;;3.47;;
8859;SDS011;4466;50.948;4.832;2024-01-16T09:15:14;8.67;;;3.57;;
8859;SDS011;4466;50.948;4.832;2024-01-16T09:17:40;6.93;;;3.17;;
8859;SDS011;4466;50.948;4.832;2024-01-16T09:20:06;8.03;;;3.50;;
8859;SDS011;4466;50.948;4.832;2024-01-16T09:22:32;8.13;;;3.40;;
8859;SDS011;4466;50.948;4.832;2024-01-16T09:24:58;10.30;;;3.33;;
8859;SDS011;4466;50.948;4.832;2024-01-16T09:27:23;9.60;;;4.20;;
8859;SDS011;4466;50.948;4.832;2024-01-16T09:29:52;8.97;;;4.00;;
8859;SDS011;4466;50.948;4.832;2024-01-16T09:32:17;7.27;;;3.67;;
8859;SDS011;4466;50.948;4.832;2024-01-16T09:34:44;8.50;;;3.70;;
8859;SDS011;4466;50.948;4.832;2024-01-16T09:37:09;7.30;;;3.73;;
8859;SDS011;4466;50.948;4.832;2024-01-16T09:39:35;9.47;;;3.97;;
8859;SDS011;4466;50.948;4.832;2024-01-16T09:42:03;9.67;;;3.93;;
8859;SDS011;4466;50.948;4.832;2024-01-16T09:44:29;10.27;;;4.40;;
8859;SDS011;4466;50.948;4.832;2024-01-16T09:46:55;8.60;;;4.27;;
8859;SDS011;4466;50.948;4.832;2024-01-16T09:49:22;7.33;;;3.67;;
8859;SDS011;4466;50.948;4.832;2024-01-16T09:51:48;6.53;;;3.30;;
8859;SDS011;4466;50.948;4.832;2024-01-16T09:54:14;8.40;;;3.77;;
8859;SDS011;4466;50.948;4.832;2024-01-16T09:56:43;8.13;;;3.30;;
8859;SDS011;4466;50.948;4.832;2024-01-16T09:59:10;7.90;;;3.13;;
8859;SDS011;4466;50.948;4.832;2024-01-16T10:01:40;7.53;;;3.50;;
8859;SDS011;4466;50.948;4.832;2024-01-16T10:04:07;8.60;;;3.50;;
8859;SDS011;4466;50.948;4.832;2024-01-16T10:06:33;10.17;;;3.07;;
8859;SDS011;4466;50.948;4.832;2024-01-16T10:08:59;5.03;;;2.63;;
8859;SDS011;4466;50.948;4.832;2024-01-16T10:11:25;8.27;;;3.00;;
8859;SDS011;4466;50.948;4.832;2024-01-16T10:13:51;6.93;;;2.70;;
8859;SDS011;4466;50.948;4.832;2024-01-16T10:16:16;7.47;;;3.20;;
8859;SDS011;4466;50.948;4.832;2024-01-16T10:18:42;8.70;;;3.17;;
8859;SDS011;4466;50.948;4.832;2024-01-16T10:21:26;9.43;;;2.87;;
8859;SDS011;4466;50.948;4.832;2024-01-16T10:23:56;6.43;;;3.10;;
8859;SDS011;4466;50.948;4.832;2024-01-16T10:26:36;6.33;;;3.00;;
8859;SDS011;4466;50.948;4.832;2024-01-16T10:29:03;5.80;;;3.00;;
8859;SDS011;4466;50.948;4.832;2024-01-16T10:31:31;11.37;;;3.13;;
8859;SDS011;4466;50.948;4.832;2024-01-16T10:33:57;6.30;;;2.77;;
8859;SDS011;4466;50.948;4.832;2024-01-16T10:36:23;8.97;;;3.23;;
8859;SDS011;4466;50.948;4.832;2024-01-16T10:38:50;5.83;;;2.73;;
8859;SDS011;4466;50.948;4.832;2024-01-16T10:41:23;7.17;;;2.90;;
8859;SDS011;4466;50.948;4.832;2024-01-16T10:44:07;9.27;;;3.60;;
8859;SDS011;4466;50.948;4.832;2024-01-16T10:46:33;6.23;;;2.53;;
8859;SDS011;4466;50.948;4.832;2024-01-16T10:49:00;6.20;;;2.70;;
8859;SDS011;4466;50.948;4.832;2024-01-16T10:51:28;8.37;;;2.97;;
8859;SDS011;4466;50.948;4.832;2024-01-16T10:54:04;6.57;;;2.77;;
8859;SDS011;4466;50.948;4.832;2024-01-16T10:56:34;6.40;;;2.87;;
8859;SDS011;4466;50.948;4.832;2024-01-16T11:02:11;6.70;;;2.60;;
8859;SDS011;4466;50.948;4.832;2024-01-16T11:04:39;8.53;;;2.57;;
8859;SDS011;4466;50.948;4.832;2024-01-16T11:07:08;9.90;;;3.27;;
8859;SDS011;4466;50.948;4.832;2024-01-16T11:09:34;5.40;;;2.80;;
8859;SDS011;4466;50.948;4.832;2024-01-16T11:12:00;9.87;;;5.07;;
8859;SDS011;4466;50.948;4.832;2024-01-16T11:14:27;16.97;;;8.77;;
8859;SDS011;4466;50.948;4.832;2024-01-16T11:16:55;26.83;;;13.27;;
8859;SDS011;4466;50.948;4.832;2024-01-16T11:19:21;23.73;;;11.93;;
8859;SDS011;4466;50.948;4.832;2024-01-16T11:21:47;6.67;;;3.63;;
8859;SDS011;4466;50.948;4.832;2024-01-16T11:24:14;7.70;;;2.93;;
8859;SDS011;4466;50.948;4.832;2024-01-16T11:26:40;6.37;;;2.80;;
8859;SDS011;4466;50.948;4.832;2024-01-16T11:31:56;6.30;;;2.60;;
8859;SDS011;4466;50.948;4.832;2024-01-16T11:37:14;7.17;;;2.53;;
8859;SDS011;4466;50.948;4.832;2024-01-16T11:39:48;5.60;;;2.20;;
8859;SDS011;4466;50.948;4.832;2024-01-16T11:42:24;6.60;;;2.13;;
8859;SDS011;4466;50.948;4.832;2024-01-16T11:44:52;7.57;;;2.80;;
8859;SDS011;4466;50.948;4.832;2024-01-16T11:47:21;6.90;;;2.30;;
8859;SDS011;4466;50.948;4.832;2024-01-16T11:49:48;6.27;;;2.30;;
8859;SDS011;4466;50.948;4.832;2024-01-16T11:52:18;8.17;;;2.37;;
8859;SDS011;4466;50.948;4.832;2024-01-16T12:00:44;6.07;;;2.43;;
8859;SDS011;4466;50.948;4.832;2024-01-16T12:03:13;4.63;;;1.90;;
8859;SDS011;4466;50.948;4.832;2024-01-16T12:05:41;5.97;;;2.10;;
8859;SDS011;4466;50.948;4.832;2024-01-16T12:08:08;5.70;;;2.30;;
8859;SDS011;4466;50.948;4.832;2024-01-16T12:10:35;5.50;;;2.00;;
8859;SDS011;4466;50.948;4.832;2024-01-16T12:13:13;7.20;;;2.50;;
8859;SDS011;4466;50.948;4.832;2024-01-16T12:15:38;6.77;;;2.30;;
8859;SDS011;4466;50.948;4.832;2024-01-16T12:18:04;5.33;;;2.17;;
8859;SDS011;4466;50.948;4.832;2024-01-16T12:20:30;7.20;;;2.63;;
8859;SDS011;4466;50.948;4.832;2024-01-16T12:22:58;8.00;;;2.57;;
8859;SDS011;4466;50.948;4.832;2024-01-16T12:25:29;4.93;;;2.17;;
8859;SDS011;4466;50.948;4.832;2024-01-16T12:27:59;6.40;;;2.40;;
8859;SDS011;4466;50.948;4.832;2024-01-16T12:30:26;4.07;;;2.23;;
8859;SDS011;4466;50.948;4.832;2024-01-16T12:35:35;7.40;;;2.30;;
8859;SDS011;4466;50.948;4.832;2024-01-16T12:38:02;5.37;;;2.57;;
8859;SDS011;4466;50.948;4.832;2024-01-16T12:40:37;5.57;;;2.40;;
8859;SDS011;4466;50.948;4.832;2024-01-16T12:43:07;5.97;;;2.07;;
8859;SDS011;4466;50.948;4.832;2024-01-16T12:45:36;5.60;;;2.17;;
8859;SDS011;4466;50.948;4.832;2024-01-16T12:48:02;4.77;;;2.20;;
8859;SDS011;4466;50.948;4.832;2024-01-16T12:50:31;5.20;;;2.40;;
8859;SDS011;4466;50.948;4.832;2024-01-16T12:53:01;4.27;;;2.10;;
8859;SDS011;4466;50.948;4.832;2024-01-16T12:55:29;5.77;;;2.37;;
8859;SDS011;4466;50.948;4.832;2024-01-16T12:58:18;5.17;;;2.20;;
8859;SDS011;4466;50.948;4.832;2024-01-16T13:00:45;3.70;;;2.20;;
8859;SDS011;4466;50.948;4.832;2024-01-16T13:03:21;8.07;;;2.20;;
8859;SDS011;4466;50.948;4.832;2024-01-16T13:05:58;5.60;;;2.20;;
8859;SDS011;4466;50.948;4.832;2024-01-16T13:08:25;5.20;;;2.00;;
8859;SDS011;4466;50.948;4.832;2024-01-16T13:11:04;5.37;;;2.20;;
8859;SDS011;4466;50.948;4.832;2024-01-16T13:13:31;4.43;;;2.23;;
8859;SDS011;4466;50.948;4.832;2024-01-16T13:15:57;5.17;;;2.00;;
8859;SDS011;4466;50.948;4.832;2024-01-16T13:18:24;4.77;;;2.40;;
8859;SDS011;4466;50.948;4.832;2024-01-16T13:20:52;7.23;;;2.63;;
8859;SDS011;4466;50.948;4.832;2024-01-16T13:23:18;4.53;;;2.27;;
8859;SDS011;4466;50.948;4.832;2024-01-16T13:25:46;5.43;;;2.40;;
8859;SDS011;4466;50.948;4.832;2024-01-16T13:28:14;5.87;;;2.60;;
8859;SDS011;4466;50.948;4.832;2024-01-16T13:30:43;9.37;;;2.80;;
8859;SDS011;4466;50.948;4.832;2024-01-16T13:33:10;6.93;;;2.30;;
8859;SDS011;4466;50.948;4.832;2024-01-16T13:35:40;5.83;;;2.03;;
8859;SDS011;4466;50.948;4.832;2024-01-16T13:38:11;4.60;;;2.50;;
8859;SDS011;4466;50.948;4.832;2024-01-16T13:40:37;4.67;;;2.30;;
8859;SDS011;4466;50.948;4.832;2024-01-16T13:43:03;6.03;;;2.73;;
8859;SDS011;4466;50.948;4.832;2024-01-16T13:45:31;6.57;;;2.20;;
8859;SDS011;4466;50.948;4.832;2024-01-16T13:48:04;3.60;;;2.30;;
8859;SDS011;4466;50.948;4.832;2024-01-16T13:50:31;3.03;;;1.97;;
8859;SDS011;4466;50.948;4.832;2024-01-16T13:52:58;5.40;;;2.57;;
8859;SDS011;4466;50.948;4.832;2024-01-16T13:55:27;6.17;;;2.27;;
8859;SDS011;4466;50.948;4.832;2024-01-16T13:57:53;8.13;;;2.33;;
8859;SDS011;4466;50.948;4.832;2024-01-16T14:00:19;7.63;;;2.43;;
8859;SDS011;4466;50.948;4.832;2024-01-16T14:02:45;6.03;;;2.40;;
8859;SDS011;4466;50.948;4.832;2024-01-16T14:05:12;5.80;;;2.50;;
8859;SDS011;4466;50.948;4.832;2024-01-16T14:07:43;6.13;;;2.40;;
8859;SDS011;4466;50.948;4.832;2024-01-16T14:10:11;5.13;;;2.37;;
8859;SDS011;4466;50.948;4.832;2024-01-16T14:12:41;5.53;;;2.20;;
8859;SDS011;4466;50.948;4.832;2024-01-16T14:15:07;5.20;;;2.20;;
8859;SDS011;4466;50.948;4.832;2024-01-16T14:17:53;4.40;;;2.10;;
8859;SDS011;4466;50.948;4.832;2024-01-16T14:20:20;4.60;;;1.90;;
8859;SDS011;4466;50.948;4.832;2024-01-16T14:22:48;5.10;;;2.03;;
8859;SDS011;4466;50.948;4.832;2024-01-16T14:25:14;5.33;;;1.90;;
8859;SDS011;4466;50.948;4.832;2024-01-16T14:27:44;5.23;;;2.27;;
8859;SDS011;4466;50.948;4.832;2024-01-16T14:30:11;5.90;;;2.17;;
8859;SDS011;4466;50.948;4.832;2024-01-16T14:32:45;5.00;;;2.20;;
8859;SDS011;4466;50.948;4.832;2024-01-16T14:35:11;4.67;;;1.97;;
8859;SDS011;4466;50.948;4.832;2024-01-16T14:37:44;3.73;;;1.87;;
8859;SDS011;4466;50.948;4.832;2024-01-16T14:40:10;5.10;;;2.17;;
8859;SDS011;4466;50.948;4.832;2024-01-16T14:42:45;4.75;;;2.20;;
8859;SDS011;4466;50.948;4.832;2024-01-16T14:45:18;5.83;;;2.47;;
8859;SDS011;4466;50.948;4.832;2024-01-16T14:47:50;4.43;;;2.27;;
8859;SDS011;4466;50.948;4.832;2024-01-16T14:50:18;4.60;;;2.40;;
8859;SDS011;4466;50.948;4.832;2024-01-16T14:52:45;5.80;;;2.30;;
8859;SDS011;4466;50.948;4.832;2024-01-16T14:55:11;7.33;;;2.50;;
8859;SDS011;4466;50.948;4.832;2024-01-16T14:57:37;6.10;;;2.27;;
8859;SDS011;4466;50.948;4.832;2024-01-16T15:00:12;4.83;;;2.10;;
8859;SDS011;4466;50.948;4.832;2024-01-16T15:02:51;4.37;;;2.20;;
8859;SDS011;4466;50.948;4.832;2024-01-16T15:05:20;5.63;;;2.50;;
8859;SDS011;4466;50.948;4.832;2024-01-16T15:07:47;5.20;;;2.17;;
8859;SDS011;4466;50.948;4.832;2024-01-16T15:10:13;4.07;;;2.30;;
8859;SDS011;4466;50.948;4.832;2024-01-16T15:12:41;7.30;;;2.50;;
8859;SDS011;4466;50.948;4.832;2024-01-16T15:15:08;7.00;;;2.43;;
8859;SDS011;4466;50.948;4.832;2024-01-16T15:17:35;5.57;;;2.40;;
8859;SDS011;4466;50.948;4.832;2024-01-16T15:20:02;7.60;;;2.50;;
8859;SDS011;4466;50.948;4.832;2024-01-16T15:22:34;4.93;;;2.60;;
8859;SDS011;4466;50.948;4.832;2024-01-16T15:25:07;6.03;;;2.53;;
8859;SDS011;4466;50.948;4.832;2024-01-16T15:27:33;4.80;;;2.13;;
8859;SDS011;4466;50.948;4.832;2024-01-16T15:30:00;4.27;;;2.03;;